Westfield, IN (46074)

1:44 PM EST on February 11, 2016 (GMT -0500)
Spring Mill Villages | | Change Station
CLOSE
Current Station
Personal Weather Station
Location: Westfield, IN
Elevation: 896 ft
Nearby Weather Stations

Elev 896 ft 40.01 °N, 86.15 °W | Updated 14 minutes ago

Partly Cloudy
Partly Cloudy
29.3 °F
Feels Like 25 °F
N
4.2
Wind Variable Wind from NNE

Today
High -- | Low -- °F
--% Chance of Precip.
Yesterday
High -- | Low -- °F
Precip. -- in
Pressure 30.27 in
Visibility 10.0 miles
Clouds Mostly Cloudy 3200 ft
Windchill 25 °F
Dew Point 12 °F
Humidity 49%
Rainfall 0.00 in
Snow Depth Not available.
7:43 AM 6:15 PM
Waxing Crescent, 13% visible
METAR KTYQ 111835Z AUTO 33004KT 10SM BKN032 M06/M13 A3027 RMK AO2 T10591133
Pressure 30.27 in
Visibility 10.0 miles
Clouds Mostly Cloudy 3200 ft
Windchill 25 °F
Dew Point 12 °F
Humidity 49%
Rainfall 0.00 in
Snow Depth Not available.
7:43 AM 6:15 PM
Waxing Crescent, 13% visible
METAR KTYQ 111835Z AUTO 33004KT 10SM BKN032 M06/M13 A3027 RMK AO2 T10591133

10-Day Weather Forecast

Almanac

Astronomy

Feb. 11, 2016 Rise Set
Actual Time
Civil Twilight
Nautical Twilight
Astronomical Twilight
Moon
Length of Visible Light
Length of Day
Tomorrow will be .
, % of the Moon is Illuminated

Today's Extremes

State Highs State Lows

Community

WunderPhotos

Upload Photos

1,892,125 photos uploaded!

WunderBlog® & News

Nearby

Air Quality

  Air Quality AQ Index Pollutant
Not available.

Snow Depth

Station Depth Elevation

Earthquake Activity

City Distance Mag. Time & Date
Minimum magnitude displayed is 2.5.

Coastal Water Temperatures

Place Temperature

Stations

Nearby Weather Stations

Station Location Temp. Windchill Dew Point Humidity Wind Precip. Elev Updated Type
                   

Watches & Warnings

There are currently no watches in effect.